sensor_id;sensor_type;location;lat;lon;timestamp;P1;durP1;ratioP1;P2;durP2;ratioP2
15498;SDS011;7851;52.260;6.030;2023-03-31T00:03:41;9.9;;;3.7;;
15498;SDS011;7851;52.260;6.030;2023-03-31T00:03:41;9.9;;;3.4;;
15498;SDS011;7851;52.260;6.030;2023-03-31T00:03:41;9.5;;;3.6;;
15498;SDS011;7851;52.260;6.030;2023-03-31T00:04:16;8.2;;;3.5;;
15498;SDS011;7851;52.260;6.030;2023-03-31T00:05:16;8.4;;;3.2;;
15498;SDS011;7851;52.260;6.030;2023-03-31T00:06:16;7.1;;;3.2;;
15498;SDS011;7851;52.260;6.030;2023-03-31T00:07:17;13.4;;;3.6;;
15498;SDS011;7851;52.260;6.030;2023-03-31T00:08:16;8.4;;;3.5;;
15498;SDS011;7851;52.260;6.030;2023-03-31T00:09:16;8.1;;;3.3;;
15498;SDS011;7851;52.260;6.030;2023-03-31T00:10:16;9.9;;;3.6;;
15498;SDS011;7851;52.260;6.030;2023-03-31T00:11:16;6.9;;;3.3;;
15498;SDS011;7851;52.260;6.030;2023-03-31T00:12:16;12.3;;;3.9;;
15498;SDS011;7851;52.260;6.030;2023-03-31T00:13:16;9.4;;;3.2;;
15498;SDS011;7851;52.260;6.030;2023-03-31T00:14:17;10.8;;;3.4;;
15498;SDS011;7851;52.260;6.030;2023-03-31T00:15:16;9.5;;;3.5;;
15498;SDS011;7851;52.260;6.030;2023-03-31T00:16:16;8.4;;;3.3;;
15498;SDS011;7851;52.260;6.030;2023-03-31T00:17:16;10.9;;;3.7;;
15498;SDS011;7851;52.260;6.030;2023-03-31T00:18:16;9.5;;;3.8;;
15498;SDS011;7851;52.260;6.030;2023-03-31T00:19:16;5.9;;;3.3;;
15498;SDS011;7851;52.260;6.030;2023-03-31T00:20:16;7.4;;;3.4;;
15498;SDS011;7851;52.260;6.030;2023-03-31T00:21:17;10.7;;;3.3;;
15498;SDS011;7851;52.260;6.030;2023-03-31T00:22:16;8.1;;;3.2;;
15498;SDS011;7851;52.260;6.030;2023-03-31T00:23:16;7.9;;;3.2;;
15498;SDS011;7851;52.260;6.030;2023-03-31T00:24:16;10.4;;;3.3;;
15498;SDS011;7851;52.260;6.030;2023-03-31T00:25:16;5.3;;;3.2;;
15498;SDS011;7851;52.260;6.030;2023-03-31T00:26:16;7.2;;;3;;
15498;SDS011;7851;52.260;6.030;2023-03-31T00:27:16;8.8;;;3.4;;
15498;SDS011;7851;52.260;6.030;2023-03-31T00:28:16;10.2;;;3.6;;
15498;SDS011;7851;52.260;6.030;2023-03-31T00:29:16;6.4;;;3.1;;
15498;SDS011;7851;52.260;6.030;2023-03-31T00:30:16;8.9;;;3.2;;
15498;SDS011;7851;52.260;6.030;2023-03-31T00:31:16;7.4;;;2.8;;
15498;SDS011;7851;52.260;6.030;2023-03-31T00:32:16;6.9;;;3;;
15498;SDS011;7851;52.260;6.030;2023-03-31T00:33:16;10.1;;;2.9;;
15498;SDS011;7851;52.260;6.030;2023-03-31T00:34:16;6.1;;;3.1;;
15498;SDS011;7851;52.260;6.030;2023-03-31T00:35:16;8.4;;;3;;
15498;SDS011;7851;52.260;6.030;2023-03-31T00:36:16;10.8;;;3.5;;
15498;SDS011;7851;52.260;6.030;2023-03-31T00:37:16;6.5;;;3.3;;
15498;SDS011;7851;52.260;6.030;2023-03-31T00:38:16;8.6;;;3;;
15498;SDS011;7851;52.260;6.030;2023-03-31T00:39:17;7.8;;;3.2;;
15498;SDS011;7851;52.260;6.030;2023-03-31T00:40:16;6.9;;;2.8;;
15498;SDS011;7851;52.260;6.030;2023-03-31T00:41:16;9.5;;;3;;
15498;SDS011;7851;52.260;6.030;2023-03-31T00:42:16;5.6;;;2.8;;
15498;SDS011;7851;52.260;6.030;2023-03-31T00:43:23;5;;;2.9;;
15498;SDS011;7851;52.260;6.030;2023-03-31T00:44:17;9.2;;;3.1;;
15498;SDS011;7851;52.260;6.030;2023-03-31T00:45:21;10;;;3.5;;
15498;SDS011;7851;52.260;6.030;2023-03-31T00:46:16;6.6;;;2.7;;
15498;SDS011;7851;52.260;6.030;2023-03-31T00:47:16;10.8;;;3.5;;
15498;SDS011;7851;52.260;6.030;2023-03-31T00:48:17;7.4;;;2.9;;
15498;SDS011;7851;52.260;6.030;2023-03-31T00:49:18;5.7;;;2.9;;
15498;SDS011;7851;52.260;6.030;2023-03-31T00:50:17;8.2;;;3;;
15498;SDS011;7851;52.260;6.030;2023-03-31T00:51:16;3.6;;;2.7;;
15498;SDS011;7851;52.260;6.030;2023-03-31T00:52:17;7.6;;;3;;
15498;SDS011;7851;52.260;6.030;2023-03-31T00:53:16;5.9;;;3;;
15498;SDS011;7851;52.260;6.030;2023-03-31T00:54:16;8.7;;;3.2;;
15498;SDS011;7851;52.260;6.030;2023-03-31T00:55:17;10;;;3;;
15498;SDS011;7851;52.260;6.030;2023-03-31T00:56:16;10.1;;;3.4;;
15498;SDS011;7851;52.260;6.030;2023-03-31T00:57:16;7.8;;;2.8;;
15498;SDS011;7851;52.260;6.030;2023-03-31T00:58:16;10.4;;;2.7;;
15498;SDS011;7851;52.260;6.030;2023-03-31T00:59:16;7.2;;;3;;
15498;SDS011;7851;52.260;6.030;2023-03-31T01:00:16;5.7;;;2.9;;
15498;SDS011;7851;52.260;6.030;2023-03-31T01:01:17;5.3;;;2.8;;
15498;SDS011;7851;52.260;6.030;2023-03-31T01:02:16;5.7;;;3;;
15498;SDS011;7851;52.260;6.030;2023-03-31T01:03:16;7.4;;;2.7;;
15498;SDS011;7851;52.260;6.030;2023-03-31T01:04:16;8.1;;;3.2;;
15498;SDS011;7851;52.260;6.030;2023-03-31T01:05:16;6.2;;;2.7;;
15498;SDS011;7851;52.260;6.030;2023-03-31T01:06:16;5.6;;;2.9;;
15498;SDS011;7851;52.260;6.030;2023-03-31T01:07:17;4.3;;;2.6;;
15498;SDS011;7851;52.260;6.030;2023-03-31T01:08:17;8;;;2.9;;
15498;SDS011;7851;52.260;6.030;2023-03-31T01:09:16;11.3;;;3.3;;
15498;SDS011;7851;52.260;6.030;2023-03-31T01:10:16;7.5;;;2.7;;
15498;SDS011;7851;52.260;6.030;2023-03-31T01:11:18;8.6;;;3;;
15498;SDS011;7851;52.260;6.030;2023-03-31T01:12:16;8.3;;;2.4;;
15498;SDS011;7851;52.260;6.030;2023-03-31T01:13:16;7.3;;;3.3;;
15498;SDS011;7851;52.260;6.030;2023-03-31T01:14:16;8.2;;;3.3;;
15498;SDS011;7851;52.260;6.030;2023-03-31T01:15:16;7.4;;;3.2;;
15498;SDS011;7851;52.260;6.030;2023-03-31T01:16:16;6.3;;;3;;
15498;SDS011;7851;52.260;6.030;2023-03-31T01:17:16;7.7;;;3.2;;
15498;SDS011;7851;52.260;6.030;2023-03-31T01:18:16;7;;;3.3;;
15498;SDS011;7851;52.260;6.030;2023-03-31T01:19:17;8.3;;;3.1;;
15498;SDS011;7851;52.260;6.030;2023-03-31T01:20:18;7.1;;;3;;
15498;SDS011;7851;52.260;6.030;2023-03-31T01:21:23;7.7;;;3.2;;
15498;SDS011;7851;52.260;6.030;2023-03-31T01:22:23;10.7;;;2.9;;
15498;SDS011;7851;52.260;6.030;2023-03-31T01:24:25;6.5;;;3.1;;
15498;SDS011;7851;52.260;6.030;2023-03-31T01:25:22;5.8;;;2.9;;
15498;SDS011;7851;52.260;6.030;2023-03-31T01:26:22;7.5;;;2.8;;
15498;SDS011;7851;52.260;6.030;2023-03-31T01:27:20;5.8;;;2.9;;
15498;SDS011;7851;52.260;6.030;2023-03-31T01:28:19;5.1;;;2.9;;
15498;SDS011;7851;52.260;6.030;2023-03-31T01:29:22;6.8;;;3;;
15498;SDS011;7851;52.260;6.030;2023-03-31T01:30:22;5.8;;;2.6;;
15498;SDS011;7851;52.260;6.030;2023-03-31T01:31:23;4.7;;;3;;
15498;SDS011;7851;52.260;6.030;2023-03-31T01:32:21;8;;;3.2;;
15498;SDS011;7851;52.260;6.030;2023-03-31T01:33:24;7.8;;;3.2;;
15498;SDS011;7851;52.260;6.030;2023-03-31T01:34:21;6.4;;;3.1;;
15498;SDS011;7851;52.260;6.030;2023-03-31T01:36:34;7.6;;;3.4;;
15498;SDS011;7851;52.260;6.030;2023-03-31T01:38:29;4;;;2.8;;
15498;SDS011;7851;52.260;6.030;2023-03-31T01:39:21;6.3;;;3.5;;
15498;SDS011;7851;52.260;6.030;2023-03-31T01:40:20;7;;;3;;
15498;SDS011;7851;52.260;6.030;2023-03-31T01:41:19;6.1;;;3.1;;
15498;SDS011;7851;52.260;6.030;2023-03-31T01:42:17;7.5;;;3.5;;
15498;SDS011;7851;52.260;6.030;2023-03-31T01:43:17;9.3;;;3.7;;
15498;SDS011;7851;52.260;6.030;2023-03-31T01:44:17;7.2;;;3.3;;
15498;SDS011;7851;52.260;6.030;2023-03-31T01:45:18;6.6;;;3.1;;
15498;SDS011;7851;52.260;6.030;2023-03-31T01:46:18;14.6;;;3.6;;
15498;SDS011;7851;52.260;6.030;2023-03-31T01:47:18;7.7;;;3.6;;
15498;SDS011;7851;52.260;6.030;2023-03-31T01:48:16;9.6;;;3.7;;
15498;SDS011;7851;52.260;6.030;2023-03-31T01:49:17;5.3;;;3.4;;
15498;SDS011;7851;52.260;6.030;2023-03-31T01:50:17;9.1;;;3.7;;
15498;SDS011;7851;52.260;6.030;2023-03-31T01:51:16;5.7;;;3.1;;
15498;SDS011;7851;52.260;6.030;2023-03-31T01:52:18;5.5;;;3.6;;
15498;SDS011;7851;52.260;6.030;2023-03-31T01:53:18;7.4;;;3.3;;
15498;SDS011;7851;52.260;6.030;2023-03-31T01:54:17;4.8;;;3.2;;
15498;SDS011;7851;52.260;6.030;2023-03-31T01:55:17;6.3;;;3.5;;
15498;SDS011;7851;52.260;6.030;2023-03-31T01:56:17;7;;;3.2;;
15498;SDS011;7851;52.260;6.030;2023-03-31T01:57:17;6.1;;;3.1;;
15498;SDS011;7851;52.260;6.030;2023-03-31T01:58:17;8.8;;;4.1;;
15498;SDS011;7851;52.260;6.030;2023-03-31T01:59:17;6.7;;;3.4;;
15498;SDS011;7851;52.260;6.030;2023-03-31T02:00:17;7.4;;;3.5;;
15498;SDS011;7851;52.260;6.030;2023-03-31T02:01:17;7.4;;;3.8;;
15498;SDS011;7851;52.260;6.030;2023-03-31T02:02:17;8.8;;;3.6;;
15498;SDS011;7851;52.260;6.030;2023-03-31T02:03:17;6;;;3.2;;
15498;SDS011;7851;52.260;6.030;2023-03-31T02:04:17;6.7;;;3.3;;
15498;SDS011;7851;52.260;6.030;2023-03-31T02:05:17;4.4;;;3;;
15498;SDS011;7851;52.260;6.030;2023-03-31T02:06:17;6.2;;;3.1;;
15498;SDS011;7851;52.260;6.030;2023-03-31T02:07:18;5;;;3.3;;
15498;SDS011;7851;52.260;6.030;2023-03-31T02:08:18;7.2;;;3.1;;
15498;SDS011;7851;52.260;6.030;2023-03-31T02:09:17;6.8;;;3.2;;
15498;SDS011;7851;52.260;6.030;2023-03-31T02:10:16;10.1;;;3.3;;
15498;SDS011;7851;52.260;6.030;2023-03-31T02:11:16;6.1;;;3;;
15498;SDS011;7851;52.260;6.030;2023-03-31T02:12:16;7.7;;;3.1;;
15498;SDS011;7851;52.260;6.030;2023-03-31T02:13:16;7.3;;;3.2;;
15498;SDS011;7851;52.260;6.030;2023-03-31T02:14:17;7.2;;;3;;
15498;SDS011;7851;52.260;6.030;2023-03-31T02:15:18;5;;;2.9;;
15498;SDS011;7851;52.260;6.030;2023-03-31T02:16:17;4.2;;;2.6;;
15498;SDS011;7851;52.260;6.030;2023-03-31T02:17:16;6.4;;;2.9;;
15498;SDS011;7851;52.260;6.030;2023-03-31T02:18:17;6.2;;;2.9;;
15498;SDS011;7851;52.260;6.030;2023-03-31T02:19:17;5.7;;;3.1;;
15498;SDS011;7851;52.260;6.030;2023-03-31T02:20:16;6.1;;;3;;
15498;SDS011;7851;52.260;6.030;2023-03-31T02:21:16;4.3;;;2.6;;
15498;SDS011;7851;52.260;6.030;2023-03-31T02:22:16;7.1;;;2.6;;
15498;SDS011;7851;52.260;6.030;2023-03-31T02:23:17;5.1;;;2.8;;
15498;SDS011;7851;52.260;6.030;2023-03-31T02:24:17;4.9;;;2.5;;
15498;SDS011;7851;52.260;6.030;2023-03-31T02:25:18;5.7;;;2.2;;
15498;SDS011;7851;52.260;6.030;2023-03-31T02:26:18;5;;;2.8;;
15498;SDS011;7851;52.260;6.030;2023-03-31T02:27:18;6.3;;;2.5;;
15498;SDS011;7851;52.260;6.030;2023-03-31T02:28:17;6.8;;;2.5;;
15498;SDS011;7851;52.260;6.030;2023-03-31T02:29:16;3.8;;;2.3;;
15498;SDS011;7851;52.260;6.030;2023-03-31T02:30:16;6;;;2.7;;
15498;SDS011;7851;52.260;6.030;2023-03-31T02:31:20;7;;;2.7;;
15498;SDS011;7851;52.260;6.030;2023-03-31T02:32:18;6.8;;;2.9;;
15498;SDS011;7851;52.260;6.030;2023-03-31T02:33:17;4.7;;;2.7;;
15498;SDS011;7851;52.260;6.030;2023-03-31T02:34:16;6.8;;;2.9;;
15498;SDS011;7851;52.260;6.030;2023-03-31T02:35:17;5.9;;;2.6;;
15498;SDS011;7851;52.260;6.030;2023-03-31T02:36:16;8.7;;;2.7;;
15498;SDS011;7851;52.260;6.030;2023-03-31T02:37:16;10.4;;;3.1;;
15498;SDS011;7851;52.260;6.030;2023-03-31T02:38:16;9;;;2.7;;
15498;SDS011;7851;52.260;6.030;2023-03-31T02:39:17;4.4;;;2.7;;
15498;SDS011;7851;52.260;6.030;2023-03-31T02:40:17;3.1;;;2.3;;
15498;SDS011;7851;52.260;6.030;2023-03-31T02:41:16;5;;;2.6;;
15498;SDS011;7851;52.260;6.030;2023-03-31T02:42:16;6.3;;;2.5;;
15498;SDS011;7851;52.260;6.030;2023-03-31T02:43:16;7.8;;;2.5;;
15498;SDS011;7851;52.260;6.030;2023-03-31T02:44:16;4.3;;;2.5;;
15498;SDS011;7851;52.260;6.030;2023-03-31T02:45:35;7.6;;;2.6;;
15498;SDS011;7851;52.260;6.030;2023-03-31T02:46:16;3.5;;;2.4;;
15498;SDS011;7851;52.260;6.030;2023-03-31T02:47:17;4.8;;;2.8;;
15498;SDS011;7851;52.260;6.030;2023-03-31T02:48:17;5.8;;;2.7;;
15498;SDS011;7851;52.260;6.030;2023-03-31T02:49:16;5.1;;;2.5;;
15498;SDS011;7851;52.260;6.030;2023-03-31T02:50:16;7.1;;;3;;
15498;SDS011;7851;52.260;6.030;2023-03-31T02:51:23;8.9;;;2.9;;
15498;SDS011;7851;52.260;6.030;2023-03-31T02:52:19;4.9;;;2.3;;
15498;SDS011;7851;52.260;6.030;2023-03-31T02:53:17;6.5;;;3;;
15498;SDS011;7851;52.260;6.030;2023-03-31T02:54:19;5.5;;;2.9;;
15498;SDS011;7851;52.260;6.030;2023-03-31T02:55:28;4;;;2.5;;
15498;SDS011;7851;52.260;6.030;2023-03-31T02:56:21;4.7;;;2.6;;
15498;SDS011;7851;52.260;6.030;2023-03-31T02:57:19;5;;;2.6;;
15498;SDS011;7851;52.260;6.030;2023-03-31T02:58:25;3.7;;;2.3;;
15498;SDS011;7851;52.260;6.030;2023-03-31T02:59:23;8.7;;;2.8;;
15498;SDS011;7851;52.260;6.030;2023-03-31T03:00:18;10.4;;;3.3;;
15498;SDS011;7851;52.260;6.030;2023-03-31T03:01:21;7.2;;;3;;
15498;SDS011;7851;52.260;6.030;2023-03-31T03:02:17;7;;;2.9;;
15498;SDS011;7851;52.260;6.030;2023-03-31T03:03:20;8.4;;;3.1;;
15498;SDS011;7851;52.260;6.030;2023-03-31T03:04:21;6.4;;;2.8;;
15498;SDS011;7851;52.260;6.030;2023-03-31T03:05:18;8.2;;;3.1;;
15498;SDS011;7851;52.260;6.030;2023-03-31T03:06:18;6.7;;;2.8;;
15498;SDS011;7851;52.260;6.030;2023-03-31T03:07:18;6.8;;;3;;
15498;SDS011;7851;52.260;6.030;2023-03-31T03:08:17;4.7;;;2.8;;
15498;SDS011;7851;52.260;6.030;2023-03-31T03:09:22;7.3;;;3;;
15498;SDS011;7851;52.260;6.030;2023-03-31T03:10:17;7;;;2.7;;
15498;SDS011;7851;52.260;6.030;2023-03-31T03:11:18;8.8;;;3;;
15498;SDS011;7851;52.260;6.030;2023-03-31T03:12:16;9.6;;;3.2;;
15498;SDS011;7851;52.260;6.030;2023-03-31T03:13:16;6.4;;;2.8;;
15498;SDS011;7851;52.260;6.030;2023-03-31T03:14:18;6.4;;;2.9;;
15498;SDS011;7851;52.260;6.030;2023-03-31T03:15:17;7.1;;;2.9;;
15498;SDS011;7851;52.260;6.030;2023-03-31T03:16:17;6.9;;;3.1;;
15498;SDS011;7851;52.260;6.030;2023-03-31T03:17:17;7.1;;;3;;
15498;SDS011;7851;52.260;6.030;2023-03-31T03:18:16;7.8;;;3.3;;
15498;SDS011;7851;52.260;6.030;2023-03-31T03:19:17;5.8;;;3;;
15498;SDS011;7851;52.260;6.030;2023-03-31T03:20:17;7;;;3;;
15498;SDS011;7851;52.260;6.030;2023-03-31T03:21:16;5.8;;;3;;
15498;SDS011;7851;52.260;6.030;2023-03-31T03:22:16;7.4;;;3.7;;
15498;SDS011;7851;52.260;6.030;2023-03-31T03:23:16;9.4;;;3.5;;
15498;SDS011;7851;52.260;6.030;2023-03-31T03:24:16;7.7;;;3.6;;
15498;SDS011;7851;52.260;6.030;2023-03-31T03:25:16;6.6;;;3.3;;
15498;SDS011;7851;52.260;6.030;2023-03-31T03:26:16;9.3;;;3.2;;
15498;SDS011;7851;52.260;6.030;2023-03-31T03:27:16;8.4;;;3.2;;
15498;SDS011;7851;52.260;6.030;2023-03-31T03:28:16;6;;;2.9;;
15498;SDS011;7851;52.260;6.030;2023-03-31T03:29:16;10.2;;;3.1;;
15498;SDS011;7851;52.260;6.030;2023-03-31T03:30:16;6.3;;;3.3;;
15498;SDS011;7851;52.260;6.030;2023-03-31T03:31:16;8.4;;;3.1;;
15498;SDS011;7851;52.260;6.030;2023-03-31T03:32:16;9.1;;;3.2;;
15498;SDS011;7851;52.260;6.030;2023-03-31T03:33:16;9;;;2.9;;
15498;SDS011;7851;52.260;6.030;2023-03-31T03:34:16;7.3;;;2.7;;
15498;SDS011;7851;52.260;6.030;2023-03-31T03:35:16;7.9;;;2.9;;
15498;SDS011;7851;52.260;6.030;2023-03-31T03:36:16;6.1;;;2.9;;
15498;SDS011;7851;52.260;6.030;2023-03-31T03:37:16;8.9;;;3.1;;
15498;SDS011;7851;52.260;6.030;2023-03-31T03:38:16;9.8;;;2.8;;
15498;SDS011;7851;52.260;6.030;2023-03-31T03:39:16;7.7;;;2.8;;
15498;SDS011;7851;52.260;6.030;2023-03-31T03:40:16;5.2;;;2.9;;
15498;SDS011;7851;52.260;6.030;2023-03-31T03:41:16;6;;;2.8;;
15498;SDS011;7851;52.260;6.030;2023-03-31T03:42:16;9.8;;;2.8;;
15498;SDS011;7851;52.260;6.030;2023-03-31T03:43:16;6;;;2.7;;
15498;SDS011;7851;52.260;6.030;2023-03-31T03:44:16;5.9;;;2.9;;
15498;SDS011;7851;52.260;6.030;2023-03-31T03:45:16;2.9;;;2.5;;
15498;SDS011;7851;52.260;6.030;2023-03-31T03:46:16;5.3;;;2.6;;
15498;SDS011;7851;52.260;6.030;2023-03-31T03:47:16;6.1;;;2.6;;
15498;SDS011;7851;52.260;6.030;2023-03-31T03:48:16;7.3;;;3;;
15498;SDS011;7851;52.260;6.030;2023-03-31T03:49:16;7.5;;;3;;
15498;SDS011;7851;52.260;6.030;2023-03-31T03:50:16;3.3;;;2.5;;
15498;SDS011;7851;52.260;6.030;2023-03-31T03:51:16;4.4;;;2.4;;
15498;SDS011;7851;52.260;6.030;2023-03-31T03:52:16;5.4;;;2.7;;
15498;SDS011;7851;52.260;6.030;2023-03-31T03:53:16;6.5;;;2.3;;
15498;SDS011;7851;52.260;6.030;2023-03-31T03:54:16;7.2;;;2.6;;
15498;SDS011;7851;52.260;6.030;2023-03-31T03:55:16;5.9;;;2.5;;
15498;SDS011;7851;52.260;6.030;2023-03-31T03:56:16;3.4;;;2.2;;
15498;SDS011;7851;52.260;6.030;2023-03-31T03:57:16;3.9;;;2.3;;
15498;SDS011;7851;52.260;6.030;2023-03-31T03:58:16;4.8;;;2.6;;
15498;SDS011;7851;52.260;6.030;2023-03-31T03:59:16;5.6;;;2.9;;
15498;SDS011;7851;52.260;6.030;2023-03-31T04:00:16;4.5;;;2.1;;
15498;SDS011;7851;52.260;6.030;2023-03-31T04:01:16;2.6;;;2.3;;
15498;SDS011;7851;52.260;6.030;2023-03-31T04:02:16;6.6;;;2.3;;
15498;SDS011;7851;52.260;6.030;2023-03-31T04:03:16;3.8;;;2.3;;
15498;SDS011;7851;52.260;6.030;2023-03-31T04:04:16;4.9;;;2.5;;
15498;SDS011;7851;52.260;6.030;2023-03-31T04:05:16;4.7;;;2.2;;
15498;SDS011;7851;52.260;6.030;2023-03-31T04:06:16;4.1;;;2.4;;
15498;SDS011;7851;52.260;6.030;2023-03-31T04:07:16;4.4;;;2.3;;
15498;SDS011;7851;52.260;6.030;2023-03-31T04:08:16;5.4;;;2.4;;
15498;SDS011;7851;52.260;6.030;2023-03-31T04:09:16;6;;;2.4;;
15498;SDS011;7851;52.260;6.030;2023-03-31T04:10:16;5.2;;;1.9;;
15498;SDS011;7851;52.260;6.030;2023-03-31T04:11:18;3.9;;;2.2;;
15498;SDS011;7851;52.260;6.030;2023-03-31T04:12:16;7.4;;;2.4;;
15498;SDS011;7851;52.260;6.030;2023-03-31T04:13:16;4.5;;;2.4;;
15498;SDS011;7851;52.260;6.030;2023-03-31T04:14:16;8.3;;;2.4;;
15498;SDS011;7851;52.260;6.030;2023-03-31T04:15:16;6.8;;;2.5;;
15498;SDS011;7851;52.260;6.030;2023-03-31T04:16:16;7.8;;;2.2;;
15498;SDS011;7851;52.260;6.030;2023-03-31T04:17:16;3.9;;;2.3;;
15498;SDS011;7851;52.260;6.030;2023-03-31T04:18:16;5.9;;;2.3;;
15498;SDS011;7851;52.260;6.030;2023-03-31T04:19:16;6.7;;;2.4;;
15498;SDS011;7851;52.260;6.030;2023-03-31T04:20:16;3.1;;;1.8;;
15498;SDS011;7851;52.260;6.030;2023-03-31T04:21:16;4.6;;;2.1;;
15498;SDS011;7851;52.260;6.030;2023-03-31T04:22:16;4.4;;;2.5;;
15498;SDS011;7851;52.260;6.030;2023-03-31T04:23:16;4.2;;;2.6;;
15498;SDS011;7851;52.260;6.030;2023-03-31T04:24:16;6;;;2.6;;
15498;SDS011;7851;52.260;6.030;2023-03-31T04:25:16;3.3;;;2.2;;
15498;SDS011;7851;52.260;6.030;2023-03-31T04:26:17;7.5;;;2.6;;
15498;SDS011;7851;52.260;6.030;2023-03-31T04:27:16;5.6;;;2.4;;
15498;SDS011;7851;52.260;6.030;2023-03-31T04:28:16;3.4;;;2.3;;
15498;SDS011;7851;52.260;6.030;2023-03-31T04:29:16;4.1;;;2.5;;
15498;SDS011;7851;52.260;6.030;2023-03-31T04:30:16;3.5;;;2.3;;
15498;SDS011;7851;52.260;6.030;2023-03-31T04:31:16;8.1;;;2.7;;
15498;SDS011;7851;52.260;6.030;2023-03-31T04:32:16;9.4;;;2.7;;
15498;SDS011;7851;52.260;6.030;2023-03-31T04:33:16;4.2;;;2.3;;
15498;SDS011;7851;52.260;6.030;2023-03-31T04:34:16;6.3;;;2.9;;
15498;SDS011;7851;52.260;6.030;2023-03-31T04:35:16;6.1;;;2.5;;
15498;SDS011;7851;52.260;6.030;2023-03-31T04:36:16;5.6;;;2.7;;
15498;SDS011;7851;52.260;6.030;2023-03-31T04:37:16;4.9;;;2.4;;
15498;SDS011;7851;52.260;6.030;2023-03-31T04:38:17;6.8;;;2.4;;
15498;SDS011;7851;52.260;6.030;2023-03-31T04:39:17;11.1;;;2.6;;
15498;SDS011;7851;52.260;6.030;2023-03-31T04:40:16;4.6;;;2.4;;
15498;SDS011;7851;52.260;6.030;2023-03-31T04:41:16;3.2;;;2.2;;
15498;SDS011;7851;52.260;6.030;2023-03-31T04:42:16;4.6;;;2.3;;
15498;SDS011;7851;52.260;6.030;2023-03-31T04:43:16;3.8;;;2.5;;
15498;SDS011;7851;52.260;6.030;2023-03-31T04:44:16;7.3;;;2.8;;
15498;SDS011;7851;52.260;6.030;2023-03-31T04:45:16;7.9;;;3.1;;
15498;SDS011;7851;52.260;6.030;2023-03-31T04:46:16;6.6;;;3.2;;
15498;SDS011;7851;52.260;6.030;2023-03-31T04:47:16;8.4;;;3.3;;
15498;SDS011;7851;52.260;6.030;2023-03-31T04:48:16;6.3;;;3.2;;
15498;SDS011;7851;52.260;6.030;2023-03-31T04:49:16;6.7;;;3.2;;
15498;SDS011;7851;52.260;6.030;2023-03-31T04:50:16;8.4;;;3.2;;
15498;SDS011;7851;52.260;6.030;2023-03-31T04:51:16;7.2;;;3;;
15498;SDS011;7851;52.260;6.030;2023-03-31T04:52:16;5.9;;;3;;
15498;SDS011;7851;52.260;6.030;2023-03-31T04:53:16;6.7;;;3.4;;
15498;SDS011;7851;52.260;6.030;2023-03-31T04:54:16;5.8;;;3.6;;
15498;SDS011;7851;52.260;6.030;2023-03-31T04:55:16;7;;;3.6;;
15498;SDS011;7851;52.260;6.030;2023-03-31T04:56:16;9.4;;;3.4;;
15498;SDS011;7851;52.260;6.030;2023-03-31T04:57:16;8.7;;;3.8;;
15498;SDS011;7851;52.260;6.030;2023-03-31T04:58:16;5.5;;;3.2;;
15498;SDS011;7851;52.260;6.030;2023-03-31T04:59:16;5.2;;;3;;
15498;SDS011;7851;52.260;6.030;2023-03-31T05:00:16;4.3;;;2.9;;
15498;SDS011;7851;52.260;6.030;2023-03-31T05:01:16;10.9;;;3.6;;
15498;SDS011;7851;52.260;6.030;2023-03-31T05:02:16;6.7;;;3.4;;
15498;SDS011;7851;52.260;6.030;2023-03-31T05:03:16;6.4;;;2.9;;
15498;SDS011;7851;52.260;6.030;2023-03-31T05:04:16;6.1;;;2.8;;
15498;SDS011;7851;52.260;6.030;2023-03-31T05:05:16;3.7;;;2.6;;
15498;SDS011;7851;52.260;6.030;2023-03-31T05:06:16;5.8;;;2.9;;
15498;SDS011;7851;52.260;6.030;2023-03-31T05:07:16;7;;;2.8;;
15498;SDS011;7851;52.260;6.030;2023-03-31T05:08:16;7.8;;;3.1;;
15498;SDS011;7851;52.260;6.030;2023-03-31T05:09:16;7.4;;;3.1;;
15498;SDS011;7851;52.260;6.030;2023-03-31T05:10:16;7.6;;;2.8;;
15498;SDS011;7851;52.260;6.030;2023-03-31T05:11:16;8.1;;;2.5;;
15498;SDS011;7851;52.260;6.030;2023-03-31T05:12:16;6.4;;;2.7;;
15498;SDS011;7851;52.260;6.030;2023-03-31T05:13:16;4.3;;;2.3;;
15498;SDS011;7851;52.260;6.030;2023-03-31T05:14:16;4.9;;;2.5;;
15498;SDS011;7851;52.260;6.030;2023-03-31T05:15:16;7.2;;;2.9;;
15498;SDS011;7851;52.260;6.030;2023-03-31T05:16:16;5.1;;;2.9;;
15498;SDS011;7851;52.260;6.030;2023-03-31T05:17:16;7.3;;;3;;
15498;SDS011;7851;52.260;6.030;2023-03-31T05:18:16;5.6;;;2.8;;
15498;SDS011;7851;52.260;6.030;2023-03-31T05:19:16;7.8;;;2.8;;
15498;SDS011;7851;52.260;6.030;2023-03-31T05:20:16;6.9;;;2.7;;
15498;SDS011;7851;52.260;6.030;2023-03-31T05:21:17;5.2;;;2.8;;
15498;SDS011;7851;52.260;6.030;2023-03-31T05:22:16;7.3;;;3.2;;
15498;SDS011;7851;52.260;6.030;2023-03-31T05:23:16;6.1;;;3.2;;
15498;SDS011;7851;52.260;6.030;2023-03-31T05:24:16;8.1;;;3.2;;
15498;SDS011;7851;52.260;6.030;2023-03-31T05:25:16;7;;;3.3;;
15498;SDS011;7851;52.260;6.030;2023-03-31T05:26:16;7;;;3.4;;
15498;SDS011;7851;52.260;6.030;2023-03-31T05:27:16;8.1;;;3.3;;
15498;SDS011;7851;52.260;6.030;2023-03-31T05:28:16;10.6;;;3.6;;
15498;SDS011;7851;52.260;6.030;2023-03-31T05:29:16;7.4;;;3.3;;
15498;SDS011;7851;52.260;6.030;2023-03-31T05:30:16;6.6;;;3.3;;
15498;SDS011;7851;52.260;6.030;2023-03-31T05:31:16;7.7;;;3.5;;
15498;SDS011;7851;52.260;6.030;2023-03-31T05:32:16;9.2;;;4;;
15498;SDS011;7851;52.260;6.030;2023-03-31T05:33:16;8.5;;;3.6;;
15498;SDS011;7851;52.260;6.030;2023-03-31T05:34:16;6.8;;;3.6;;
15498;SDS011;7851;52.260;6.030;2023-03-31T05:35:16;6.5;;;3.5;;
15498;SDS011;7851;52.260;6.030;2023-03-31T05:36:16;8;;;4.2;;
15498;SDS011;7851;52.260;6.030;2023-03-31T05:37:16;7.9;;;3.7;;
15498;SDS011;7851;52.260;6.030;2023-03-31T05:38:16;9.5;;;3.6;;
15498;SDS011;7851;52.260;6.030;2023-03-31T05:39:16;7.9;;;3.9;;
15498;SDS011;7851;52.260;6.030;2023-03-31T05:40:16;10.3;;;3.9;;
15498;SDS011;7851;52.260;6.030;2023-03-31T05:41:16;8.6;;;3.5;;
15498;SDS011;7851;52.260;6.030;2023-03-31T05:42:16;7.6;;;4;;
15498;SDS011;7851;52.260;6.030;2023-03-31T05:43:16;6.7;;;3.5;;
15498;SDS011;7851;52.260;6.030;2023-03-31T05:44:16;8.6;;;3.7;;
15498;SDS011;7851;52.260;6.030;2023-03-31T05:45:16;6.9;;;3.5;;
15498;SDS011;7851;52.260;6.030;2023-03-31T05:46:16;8.6;;;3.6;;
15498;SDS011;7851;52.260;6.030;2023-03-31T05:47:16;8.4;;;3.9;;
15498;SDS011;7851;52.260;6.030;2023-03-31T05:48:16;7.6;;;3.5;;
15498;SDS011;7851;52.260;6.030;2023-03-31T05:49:16;6.6;;;3.6;;
15498;SDS011;7851;52.260;6.030;2023-03-31T05:50:16;9.5;;;4;;
15498;SDS011;7851;52.260;6.030;2023-03-31T05:51:16;6.1;;;3.5;;
15498;SDS011;7851;52.260;6.030;2023-03-31T05:52:16;7.5;;;3.3;;
15498;SDS011;7851;52.260;6.030;2023-03-31T05:53:16;7.2;;;3.7;;
15498;SDS011;7851;52.260;6.030;2023-03-31T05:54:16;8.5;;;3.8;;
15498;SDS011;7851;52.260;6.030;2023-03-31T05:55:16;10;;;3.7;;
15498;SDS011;7851;52.260;6.030;2023-03-31T05:56:16;5.3;;;3.4;;
15498;SDS011;7851;52.260;6.030;2023-03-31T05:57:16;7.9;;;3.8;;
15498;SDS011;7851;52.260;6.030;2023-03-31T05:58:16;6.4;;;3.8;;
15498;SDS011;7851;52.260;6.030;2023-03-31T05:59:16;7.3;;;4;;
15498;SDS011;7851;52.260;6.030;2023-03-31T06:00:16;5.7;;;3.2;;
15498;SDS011;7851;52.260;6.030;2023-03-31T06:01:16;8.6;;;3.8;;
15498;SDS011;7851;52.260;6.030;2023-03-31T06:02:16;5.9;;;3.3;;
15498;SDS011;7851;52.260;6.030;2023-03-31T06:03:16;9.1;;;3.3;;
15498;SDS011;7851;52.260;6.030;2023-03-31T06:04:16;6.1;;;3;;
15498;SDS011;7851;52.260;6.030;2023-03-31T06:05:16;6;;;3.1;;
15498;SDS011;7851;52.260;6.030;2023-03-31T06:06:16;7.4;;;3.3;;
15498;SDS011;7851;52.260;6.030;2023-03-31T06:07:16;6.2;;;3.3;;
15498;SDS011;7851;52.260;6.030;2023-03-31T06:08:16;7;;;3.4;;
15498;SDS011;7851;52.260;6.030;2023-03-31T06:09:16;8.3;;;3.4;;
15498;SDS011;7851;52.260;6.030;2023-03-31T06:10:16;5.9;;;3.2;;
15498;SDS011;7851;52.260;6.030;2023-03-31T06:11:17;6.2;;;3.1;;
15498;SDS011;7851;52.260;6.030;2023-03-31T06:12:16;5.9;;;3.5;;
15498;SDS011;7851;52.260;6.030;2023-03-31T06:13:16;6.4;;;3.5;;
15498;SDS011;7851;52.260;6.030;2023-03-31T06:14:16;6.6;;;3.2;;
15498;SDS011;7851;52.260;6.030;2023-03-31T06:15:16;9.9;;;3.6;;
15498;SDS011;7851;52.260;6.030;2023-03-31T06:16:16;7.6;;;3.7;;
15498;SDS011;7851;52.260;6.030;2023-03-31T06:17:16;5.5;;;3.4;;
15498;SDS011;7851;52.260;6.030;2023-03-31T06:18:16;7.1;;;3.2;;
15498;SDS011;7851;52.260;6.030;2023-03-31T06:19:16;8.2;;;3.4;;
15498;SDS011;7851;52.260;6.030;2023-03-31T06:20:16;8.5;;;3.5;;
15498;SDS011;7851;52.260;6.030;2023-03-31T06:21:16;8.1;;;3.5;;
15498;SDS011;7851;52.260;6.030;2023-03-31T06:22:16;6;;;3.3;;
15498;SDS011;7851;52.260;6.030;2023-03-31T06:23:16;9.5;;;3.1;;
15498;SDS011;7851;52.260;6.030;2023-03-31T06:24:16;7.2;;;3.3;;